createdAt,value
2018-05-15T00:02:26.881Z,13.32
2018-05-15T00:04:55.176Z,13.34
2018-05-15T00:07:23.523Z,13.33
2018-05-15T00:09:52.592Z,13.25
2018-05-15T00:12:21.616Z,13.20
2018-05-15T00:14:49.930Z,13.17
2018-05-15T00:17:18.226Z,13.15
2018-05-15T00:19:47.043Z,13.15
2018-05-15T00:22:15.380Z,13.10
2018-05-15T00:24:43.984Z,13.11
2018-05-15T00:27:12.299Z,13.13
2018-05-15T00:29:42.591Z,13.08
2018-05-15T00:32:10.907Z,13.04
2018-05-15T00:34:39.734Z,13.00
2018-05-15T00:37:08.239Z,12.97
2018-05-15T00:39:36.891Z,12.90
2018-05-15T00:42:06.259Z,12.85
2018-05-15T00:44:34.629Z,12.81
2018-05-15T00:47:02.932Z,12.77
2018-05-15T00:49:31.230Z,12.69
2018-05-15T00:51:59.579Z,12.66
2018-05-15T00:54:27.894Z,12.62
2018-05-15T00:56:56.194Z,12.63
2018-05-15T00:59:24.915Z,12.62
2018-05-15T01:01:54.546Z,12.59
2018-05-15T01:04:22.878Z,12.63
2018-05-15T01:06:51.685Z,12.66
2018-05-15T01:09:19.978Z,12.70
2018-05-15T01:11:48.658Z,12.74
2018-05-15T01:14:16.986Z,12.77
2018-05-15T01:16:45.300Z,12.77
2018-05-15T01:19:13.635Z,12.74
2018-05-15T01:21:42.700Z,12.79
2018-05-15T01:24:11.779Z,12.78
2018-05-15T01:26:40.111Z,12.82
2018-05-15T01:29:08.411Z,12.72
2018-05-15T01:31:36.723Z,12.77
2018-05-15T01:34:05.066Z,12.85
2018-05-15T01:36:33.363Z,12.73
2018-05-15T01:39:02.051Z,12.74
2018-05-15T01:41:31.019Z,12.72
2018-05-15T01:43:59.331Z,12.84
2018-05-15T01:46:27.706Z,12.88
2018-05-15T01:48:56.661Z,12.64
2018-05-15T01:51:24.970Z,12.68
2018-05-15T01:53:53.322Z,12.74
2018-05-15T01:56:21.622Z,12.64
2018-05-15T01:58:49.924Z,12.73
2018-05-15T02:01:18.267Z,12.60
2018-05-15T02:03:46.671Z,12.51
2018-05-15T02:06:15.939Z,12.58
2018-05-15T02:08:44.275Z,12.56
2018-05-15T02:11:12.574Z,12.50
2018-05-15T02:13:41.843Z,12.50
2018-05-15T02:16:10.176Z,12.53
2018-05-15T02:18:38.490Z,12.53
2018-05-15T02:21:07.535Z,12.49
2018-05-15T02:23:36.567Z,12.51
2018-05-15T02:26:05.740Z,12.57
2018-05-15T02:28:34.089Z,12.45
2018-05-15T02:31:02.761Z,12.48
2018-05-15T02:33:31.187Z,12.48
2018-05-15T02:35:59.495Z,12.43
2018-05-15T02:38:27.799Z,12.51
2018-05-15T02:40:56.207Z,12.53
2018-05-15T02:43:24.510Z,12.58
2018-05-15T02:45:53.422Z,12.60
2018-05-15T02:48:21.743Z,12.59
2018-05-15T02:50:50.130Z,12.58
2018-05-15T02:53:18.512Z,12.63
2018-05-15T02:55:47.063Z,12.56
2018-05-15T02:58:15.543Z,12.57
2018-05-15T03:00:44.763Z,12.59
2018-05-15T03:03:13.066Z,12.57
2018-05-15T03:05:42.136Z,12.52
2018-05-15T03:08:10.613Z,12.55
2018-05-15T03:10:38.930Z,12.44
2018-05-15T03:13:07.234Z,12.47
2018-05-15T03:15:36.275Z,12.54
2018-05-15T03:18:05.375Z,12.50
2018-05-15T03:20:33.871Z,12.53
2018-05-15T03:23:02.207Z,12.54
2018-05-15T03:25:31.127Z,12.50
2018-05-15T03:27:59.427Z,12.49
2018-05-15T03:30:27.755Z,12.45
2018-05-15T03:32:56.070Z,12.49
2018-05-15T03:35:24.363Z,12.51
2018-05-15T03:37:53.002Z,12.52
2018-05-15T03:40:21.342Z,12.51
2018-05-15T03:42:49.638Z,12.53
2018-05-15T03:45:17.744Z,12.55
2018-05-15T03:47:46.851Z,12.58
2018-05-15T03:50:15.534Z,12.60
2018-05-15T03:52:44.551Z,12.79
2018-05-15T03:55:12.851Z,12.85
2018-05-15T03:57:41.146Z,12.76
2018-05-15T04:00:26.971Z,12.80
2018-05-15T04:03:12.955Z,12.79
2018-05-15T04:05:58.731Z,12.68
2018-05-15T04:08:27.030Z,12.73
2018-05-15T04:10:55.464Z,12.72
2018-05-15T04:13:24.838Z,12.64
2018-05-15T04:15:54.002Z,12.64
2018-05-15T04:18:22.722Z,12.60
2018-05-15T04:20:51.787Z,12.62
2018-05-15T04:23:20.172Z,12.61
2018-05-15T04:25:48.910Z,12.57
2018-05-15T04:28:17.346Z,12.54
2018-05-15T04:30:47.625Z,12.57
2018-05-15T04:33:16.315Z,12.72
2018-05-15T04:35:44.671Z,12.87
2018-05-15T04:38:13.747Z,13.00
2018-05-15T04:40:42.078Z,13.36
2018-05-15T04:43:10.366Z,13.45
2018-05-15T04:45:38.794Z,13.58
2018-05-15T04:48:07.344Z,13.74
2018-05-15T04:50:35.758Z,13.84
2018-05-15T04:53:04.053Z,13.83
2018-05-15T04:55:32.399Z,13.62
2018-05-15T04:58:00.692Z,13.67
2018-05-15T05:00:28.990Z,13.91
2018-05-15T05:02:57.815Z,14.03
2018-05-15T05:05:26.102Z,14.25
2018-05-15T05:07:54.397Z,14.27
2018-05-15T05:10:22.706Z,14.77
2018-05-15T05:12:51.060Z,15.04
2018-05-15T05:15:19.356Z,15.41
2018-05-15T05:17:47.651Z,15.52
2018-05-15T05:20:15.930Z,15.69
2018-05-15T05:22:45.183Z,15.77
2018-05-15T05:25:14.051Z,15.92
2018-05-15T05:27:42.344Z,15.92
2018-05-15T05:30:10.690Z,15.78
2018-05-15T05:32:38.979Z,15.97
2018-05-15T05:35:07.305Z,15.85
2018-05-15T05:37:36.494Z,15.57
2018-05-15T05:40:04.876Z,15.08
2018-05-15T05:42:33.087Z,15.09
2018-05-15T05:45:02.055Z,15.70
2018-05-15T05:47:30.347Z,15.69
2018-05-15T05:49:59.254Z,15.68
2018-05-15T05:52:28.432Z,15.47
2018-05-15T05:54:56.975Z,15.69
2018-05-15T05:57:25.318Z,15.44
2018-05-15T05:59:54.690Z,15.24
2018-05-15T06:02:23.004Z,15.29
2018-05-15T06:04:51.487Z,15.40
2018-05-15T06:07:20.410Z,15.35
2018-05-15T06:09:48.707Z,15.35
2018-05-15T06:12:17.099Z,15.16
2018-05-15T06:14:45.418Z,14.72
2018-05-15T06:17:13.707Z,14.76
2018-05-15T06:19:42.234Z,14.92
2018-05-15T06:22:10.830Z,14.79
2018-05-15T06:24:39.119Z,14.99
2018-05-15T06:27:07.454Z,14.66
2018-05-15T06:29:35.751Z,14.45
2018-05-15T06:32:04.294Z,14.43
2018-05-15T06:34:33.103Z,14.53
2018-05-15T06:37:01.338Z,14.39
2018-05-15T06:39:29.036Z,14.26
2018-05-15T06:41:57.674Z,14.09
2018-05-15T06:44:26.218Z,13.88
2018-05-15T06:46:54.507Z,13.71
2018-05-15T06:49:23.522Z,13.63
2018-05-15T06:51:52.026Z,13.52
2018-05-15T06:54:20.315Z,13.36
2018-05-15T06:56:49.046Z,13.27
2018-05-15T06:59:18.491Z,13.22
2018-05-15T07:01:46.153Z,13.02
2018-05-15T07:04:14.407Z,13.02
2018-05-15T07:06:43.354Z,12.92
2018-05-15T07:09:11.731Z,12.95
2018-05-15T07:11:40.029Z,12.98
2018-05-15T07:14:08.483Z,13.12
2018-05-15T07:16:37.811Z,13.18
2018-05-15T07:19:06.155Z,13.39
2018-05-15T07:21:34.455Z,13.45
2018-05-15T07:24:03.558Z,13.47
2018-05-15T07:26:31.843Z,13.59
2018-05-15T07:29:00.718Z,13.71
2018-05-15T07:31:29.074Z,13.81
2018-05-15T07:33:57.363Z,13.96
2018-05-15T07:36:25.655Z,14.07
2018-05-15T07:38:53.975Z,14.03
2018-05-15T07:41:22.390Z,13.92
2018-05-15T07:43:50.673Z,13.93
2018-05-15T07:46:19.002Z,14.18
2018-05-15T07:48:47.663Z,14.49
2018-05-15T07:51:16.191Z,14.90
2018-05-15T07:53:44.638Z,15.16
2018-05-15T07:56:12.822Z,15.57
2018-05-15T07:58:41.182Z,16.05
2018-05-15T08:01:09.523Z,16.46
2018-05-15T08:03:37.823Z,18.37
2018-05-15T08:06:06.117Z,19.88
2018-05-15T08:08:34.459Z,21.58
2018-05-15T08:11:02.722Z,23.93
2018-05-15T08:13:31.009Z,24.61
2018-05-15T08:15:59.370Z,25.92
2018-05-15T08:18:27.743Z,26.04
2018-05-15T08:20:55.982Z,23.48
2018-05-15T08:23:24.275Z,23.37
2018-05-15T08:25:52.568Z,22.48
2018-05-15T08:28:20.883Z,25.36
2018-05-15T08:30:49.252Z,26.60
2018-05-15T08:33:17.739Z,28.47
2018-05-15T08:35:46.567Z,27.73
2018-05-15T08:38:15.842Z,29.31
2018-05-15T08:40:45.081Z,29.31
2018-05-15T08:43:13.371Z,29.72
2018-05-15T08:45:41.666Z,28.32
2018-05-15T08:48:10.559Z,26.72
2018-05-15T08:50:38.970Z,25.08
2018-05-15T08:53:08.235Z,28.04
2018-05-15T08:55:36.601Z,28.07
2018-05-15T08:58:04.887Z,30.16
2018-05-15T09:00:33.176Z,28.55
2018-05-15T09:03:01.684Z,25.43
2018-05-15T09:05:31.247Z,25.20
2018-05-15T09:07:59.658Z,24.91
2018-05-15T09:10:27.967Z,23.31
2018-05-15T09:12:56.903Z,22.64
2018-05-15T09:15:25.422Z,22.05
2018-05-15T09:17:53.815Z,21.35
2018-05-15T09:20:22.871Z,24.01
2018-05-15T09:22:51.194Z,25.92
2018-05-15T09:25:19.485Z,25.34
2018-05-15T09:27:47.770Z,25.27
2018-05-15T09:30:17.295Z,27.29
2018-05-15T09:32:45.606Z,27.76
2018-05-15T09:35:13.895Z,27.60
2018-05-15T09:37:42.230Z,29.18
2018-05-15T09:40:11.218Z,31.21
2018-05-15T09:42:39.727Z,29.09
2018-05-15T09:45:08.891Z,26.76
2018-05-15T09:47:37.178Z,26.49
2018-05-15T09:50:05.466Z,24.68
2018-05-15T09:52:34.062Z,25.04
2018-05-15T09:55:02.737Z,28.24
2018-05-15T09:57:31.212Z,28.91
2018-05-15T09:59:59.507Z,26.93
2018-05-15T10:02:28.158Z,29.11
2018-05-15T10:04:57.701Z,25.97
2018-05-15T10:07:27.496Z,27.34
2018-05-15T10:09:56.034Z,29.50
2018-05-15T10:12:24.361Z,31.08
2018-05-15T10:14:52.651Z,31.52
2018-05-15T10:17:20.938Z,32.38
2018-05-15T10:19:49.274Z,31.26
2018-05-15T10:22:17.570Z,32.80
2018-05-15T10:24:45.862Z,31.15
2018-05-15T10:27:14.538Z,28.96
2018-05-15T10:29:42.939Z,28.76
2018-05-15T10:32:11.698Z,26.88
2018-05-15T10:34:40.117Z,26.88
2018-05-15T10:37:09.190Z,28.70
2018-05-15T10:39:37.506Z,28.49
2018-05-15T10:42:05.826Z,27.90
2018-05-15T10:44:34.131Z,28.72
2018-05-15T10:47:02.864Z,28.12
2018-05-15T10:49:31.237Z,29.25
2018-05-15T10:51:59.551Z,23.60
2018-05-15T10:54:28.443Z,25.55
2018-05-15T10:56:56.851Z,24.71
2018-05-15T10:59:25.173Z,25.52
2018-05-15T11:01:54.303Z,27.73
2018-05-15T11:04:22.663Z,29.46
2018-05-15T11:06:52.010Z,31.91
2018-05-15T11:09:21.873Z,30.17
2018-05-15T11:11:50.757Z,30.40
2018-05-15T11:14:19.486Z,31.84
2018-05-15T11:16:47.897Z,29.40
2018-05-15T11:19:33.650Z,24.28
2018-05-15T11:22:19.605Z,23.20
2018-05-15T11:24:51.619Z,22.38
2018-05-15T11:27:19.938Z,21.98
2018-05-15T11:29:48.562Z,23.82
2018-05-15T11:32:16.850Z,24.60
2018-05-15T11:34:45.719Z,25.67
2018-05-15T11:37:14.057Z,25.67
2018-05-15T11:39:42.669Z,24.49
2018-05-15T11:42:11.359Z,23.34
2018-05-15T11:44:40.354Z,21.84
2018-05-15T11:47:08.656Z,23.46
2018-05-15T11:49:37.840Z,25.05
2018-05-15T11:52:06.428Z,26.92
2018-05-15T11:54:34.095Z,28.90
2018-05-15T11:57:02.606Z,28.22
2018-05-15T11:59:31.653Z,26.63
2018-05-15T12:01:59.943Z,25.23
2018-05-15T12:04:29.031Z,24.41
2018-05-15T12:06:57.408Z,23.01
2018-05-15T12:09:25.695Z,25.74
2018-05-15T12:11:54.106Z,26.57
2018-05-15T12:14:22.655Z,27.29
2018-05-15T12:16:51.007Z,29.19
2018-05-15T12:19:19.298Z,27.83
2018-05-15T12:21:47.779Z,25.60
2018-05-15T12:24:16.637Z,26.43
2018-05-15T12:26:44.928Z,27.32
2018-05-15T12:29:13.251Z,30.42
2018-05-15T12:31:41.552Z,28.39
2018-05-15T12:34:09.860Z,27.72
2018-05-15T12:36:38.405Z,28.16
2018-05-15T12:39:06.691Z,31.61
2018-05-15T12:41:35.019Z,32.16
2018-05-15T12:44:03.364Z,31.12
2018-05-15T12:46:31.650Z,31.32
2018-05-15T12:49:05.682Z,28.22
2018-05-15T12:51:34.395Z,24.24
2018-05-15T12:54:03.495Z,25.73
2018-05-15T12:56:33.613Z,28.26
2018-05-15T12:59:02.191Z,24.73
2018-05-15T13:01:30.250Z,22.82
2018-05-15T13:03:58.580Z,22.56
2018-05-15T13:06:26.860Z,24.29
2018-05-15T13:08:55.329Z,23.99
2018-05-15T13:11:23.793Z,25.67
2018-05-15T13:13:52.838Z,26.49
2018-05-15T13:16:21.647Z,28.19
2018-05-15T13:18:49.968Z,28.81
2018-05-15T13:21:18.670Z,29.38
2018-05-15T13:23:46.950Z,28.45
2018-05-15T13:26:15.266Z,26.46
2018-05-15T13:28:43.552Z,27.15
2018-05-15T13:31:11.834Z,27.43
2018-05-15T13:33:40.315Z,27.87
2018-05-15T13:36:09.614Z,26.70
2018-05-15T13:38:37.901Z,25.33
2018-05-15T13:41:07.661Z,24.69
2018-05-15T13:43:36.139Z,25.54
2018-05-15T13:46:04.712Z,25.98
2018-05-15T13:48:33.226Z,26.33
2018-05-15T13:51:02.342Z,26.65
2018-05-15T13:53:30.626Z,27.19
2018-05-15T13:55:59.187Z,25.97
2018-05-15T13:58:27.706Z,27.06
2018-05-15T14:00:55.989Z,27.72
2018-05-15T14:03:24.322Z,28.58
2018-05-15T14:05:52.606Z,27.94
2018-05-15T14:08:21.290Z,25.81
2018-05-15T14:10:50.259Z,27.41
2018-05-15T14:13:19.279Z,26.53
2018-05-15T14:15:47.578Z,28.40
2018-05-15T14:18:16.671Z,26.37
2018-05-15T14:20:45.029Z,24.09
2018-05-15T14:23:13.313Z,25.50
2018-05-15T14:25:42.007Z,26.76
2018-05-15T14:28:10.582Z,27.87
2018-05-15T14:30:39.015Z,28.39
2018-05-15T14:33:07.354Z,27.11
2018-05-15T14:35:36.088Z,27.89
2018-05-15T14:38:04.380Z,27.95
2018-05-15T14:40:32.822Z,25.98
2018-05-15T14:43:24.766Z,26.28
2018-05-15T14:45:53.116Z,26.58
2018-05-15T14:48:21.403Z,24.73
2018-05-15T15:04:39.068Z,26.65
2018-05-15T15:07:07.606Z,26.46
2018-05-15T15:09:36.832Z,26.90
2018-05-15T15:12:06.226Z,27.35
2018-05-15T15:14:34.510Z,27.47
2018-05-15T15:17:03.210Z,26.93
2018-05-15T15:19:31.534Z,24.89
2018-05-15T15:21:59.822Z,22.53
2018-05-15T15:24:28.111Z,21.70
2018-05-15T15:26:56.441Z,21.67
2018-05-15T15:29:24.936Z,21.61
2018-05-15T15:31:53.423Z,22.28
2018-05-15T15:34:21.738Z,23.17
2018-05-15T15:36:50.018Z,23.69
2018-05-15T15:39:18.306Z,24.68
2018-05-15T15:41:46.969Z,25.06
2018-05-15T15:44:15.246Z,24.41
2018-05-15T15:46:43.527Z,24.46
2018-05-15T15:49:12.063Z,24.13
2018-05-15T15:51:40.818Z,23.63
2018-05-15T15:54:09.098Z,23.29
2018-05-15T15:56:37.739Z,22.60
2018-05-15T15:59:06.019Z,22.43
2018-05-15T16:01:34.798Z,21.83
2018-05-15T16:04:03.588Z,21.56
2018-05-15T16:06:32.468Z,21.37
2018-05-15T16:09:00.763Z,21.42
2018-05-15T16:11:29.069Z,20.69
2018-05-15T16:13:57.407Z,19.83
2018-05-15T16:16:25.703Z,18.76
2018-05-15T16:18:54.034Z,18.15
2018-05-15T16:21:22.743Z,17.46
2018-05-15T16:23:51.027Z,17.16
2018-05-15T16:26:19.390Z,17.07
2018-05-15T16:28:47.673Z,16.85
2018-05-15T16:31:15.973Z,16.51
2018-05-15T16:33:44.308Z,15.63
2018-05-15T16:36:13.090Z,14.92
2018-05-15T16:38:41.813Z,14.91
2018-05-15T16:41:10.530Z,15.41
2018-05-15T16:43:38.826Z,15.81
2018-05-15T16:46:07.238Z,16.36
2018-05-15T16:48:36.143Z,16.52
2018-05-15T16:51:04.436Z,16.59
2018-05-15T16:53:32.912Z,16.66
2018-05-15T16:56:01.295Z,16.96
2018-05-15T16:58:29.584Z,17.18
2018-05-15T17:00:57.878Z,16.78
2018-05-15T17:03:26.302Z,16.68
2018-05-15T17:05:55.143Z,16.65
2018-05-15T17:08:23.605Z,16.31
2018-05-15T17:10:51.947Z,16.15
2018-05-15T17:13:20.936Z,16.00
2018-05-15T17:15:49.642Z,15.89
2018-05-15T17:18:17.947Z,16.01
2018-05-15T17:20:46.235Z,16.05
2018-05-15T17:23:15.403Z,16.18
2018-05-15T17:25:44.453Z,15.86
2018-05-15T17:28:13.514Z,15.82
2018-05-15T17:30:41.847Z,15.90
2018-05-15T17:33:10.249Z,15.84
2018-05-15T17:35:39.127Z,15.81
2018-05-15T17:38:07.423Z,15.75
2018-05-15T17:40:36.090Z,15.86
2018-05-15T17:43:04.461Z,15.74
2018-05-15T17:45:32.742Z,15.39
2018-05-15T17:48:01.047Z,15.46
2018-05-15T17:50:31.443Z,15.35
2018-05-15T17:52:59.834Z,15.23
2018-05-15T17:55:28.226Z,15.11
2018-05-15T17:57:56.902Z,15.07
2018-05-15T18:00:26.031Z,15.00
2018-05-15T18:02:55.283Z,14.76
2018-05-15T18:05:24.382Z,14.17
2018-05-15T18:07:52.657Z,13.73
2018-05-15T18:10:21.202Z,13.40
2018-05-15T18:12:49.791Z,13.33
2018-05-15T18:15:18.865Z,13.18
2018-05-15T18:17:47.135Z,13.08
2018-05-15T18:20:15.751Z,13.01
2018-05-15T18:22:44.190Z,13.01
2018-05-15T18:25:12.526Z,12.99
2018-05-15T18:27:40.854Z,13.01
2018-05-15T18:30:09.783Z,12.93
2018-05-15T18:32:38.476Z,12.90
2018-05-15T18:35:07.744Z,12.83
2018-05-15T18:37:36.098Z,12.85
2018-05-15T18:40:04.896Z,12.87
2018-05-15T18:42:33.359Z,12.86
2018-05-15T18:45:01.757Z,12.86
2018-05-15T18:47:29.819Z,12.79
2018-05-15T18:49:59.325Z,12.86
2018-05-15T18:52:28.072Z,12.96
2018-05-15T18:54:56.506Z,13.00
2018-05-15T18:57:24.952Z,12.94
2018-05-15T18:59:53.261Z,12.93
2018-05-15T19:02:21.676Z,12.92
2018-05-15T19:04:49.991Z,12.94
2018-05-15T19:07:18.274Z,12.93
2018-05-15T19:09:46.579Z,12.80
2018-05-15T19:12:14.959Z,12.73
2018-05-15T19:14:45.215Z,12.72
2018-05-15T19:17:14.283Z,12.79
2018-05-15T19:19:42.659Z,12.81
2018-05-15T19:22:11.222Z,12.91
2018-05-15T19:24:39.506Z,13.11
2018-05-15T19:27:07.842Z,13.09
2018-05-15T19:29:36.157Z,13.00
2018-05-15T19:32:10.654Z,13.00
2018-05-15T19:48:00.137Z,13.25
2018-05-15T19:50:28.424Z,13.20
2018-05-15T19:52:57.130Z,13.22
2018-05-15T19:55:25.763Z,13.30
2018-05-15T19:57:54.050Z,13.25
2018-05-15T20:00:22.414Z,13.22
2018-05-15T20:02:50.781Z,13.22
2018-05-15T20:05:19.700Z,13.21
2018-05-15T20:07:48.049Z,13.21
2018-05-15T20:10:16.363Z,13.18
2018-05-15T20:12:44.647Z,13.17
2018-05-15T20:15:12.923Z,13.29
2018-05-15T20:17:41.248Z,13.40
2018-05-15T20:20:10.414Z,13.48
2018-05-15T20:22:39.783Z,13.50
2018-05-15T20:25:09.275Z,13.54
2018-05-15T20:27:37.555Z,13.37
2018-05-15T20:30:06.218Z,13.28
2018-05-15T20:32:35.712Z,13.31
2018-05-15T20:35:04.075Z,13.45
2018-05-15T20:37:32.965Z,13.51
2018-05-15T20:40:02.078Z,13.35
2018-05-15T20:42:31.254Z,13.34
2018-05-15T20:44:59.600Z,13.34
2018-05-15T20:47:27.946Z,13.38
2018-05-15T20:49:56.439Z,13.37
2018-05-15T20:52:24.758Z,13.43
2018-05-15T20:54:54.451Z,13.43
2018-05-15T20:57:23.316Z,13.39
2018-05-15T20:59:51.674Z,13.19
2018-05-15T21:02:20.220Z,13.26
2018-05-15T21:04:49.158Z,13.30
2018-05-15T21:07:17.677Z,13.26
2018-05-15T21:09:46.031Z,13.25
2018-05-15T21:12:14.912Z,13.20
2018-05-15T21:14:44.154Z,13.09
2018-05-15T21:17:12.643Z,13.12
2018-05-15T21:19:41.663Z,13.21
2018-05-15T21:22:10.499Z,12.99
2018-05-15T21:24:38.815Z,12.85
2018-05-15T21:27:07.978Z,12.75
2018-05-15T21:29:36.311Z,12.64
2018-05-15T21:32:04.768Z,12.60
2018-05-15T21:34:33.418Z,12.58
2018-05-15T21:37:01.751Z,12.46
2018-05-15T21:39:30.163Z,12.43
2018-05-15T21:41:59.051Z,12.51
2018-05-15T21:44:27.379Z,12.57
2018-05-15T21:46:55.671Z,12.60
2018-05-15T21:49:23.976Z,12.60
2018-05-15T21:51:52.656Z,12.62
2018-05-15T21:54:20.951Z,12.60
2018-05-15T21:56:49.240Z,12.59
2018-05-15T21:59:18.750Z,12.67
2018-05-15T22:01:47.822Z,12.66
2018-05-15T22:04:16.607Z,12.60
2018-05-15T22:06:45.679Z,12.52
2018-05-15T22:09:16.084Z,12.37
2018-05-15T22:12:02.235Z,12.33
2018-05-15T22:14:48.675Z,12.34
2018-05-15T22:17:34.873Z,12.30
2018-05-15T22:20:22.115Z,12.34
2018-05-15T22:22:49.662Z,12.50
2018-05-15T22:25:18.019Z,12.60
2018-05-15T22:27:46.438Z,12.44
2018-05-15T22:30:14.784Z,12.40
2018-05-15T22:32:44.160Z,12.47
2018-05-15T22:35:12.451Z,12.49
2018-05-15T22:37:41.654Z,12.58
2018-05-15T22:40:10.589Z,12.68
2018-05-15T22:42:39.029Z,12.69
2018-05-15T22:45:07.906Z,12.69
2018-05-15T22:47:36.234Z,12.67
2018-05-15T22:50:04.671Z,12.50
2018-05-15T22:52:33.773Z,12.40
2018-05-15T22:55:02.655Z,12.33
2018-05-15T22:57:31.291Z,12.37
2018-05-15T23:00:00.632Z,12.45
2018-05-15T23:02:29.379Z,12.36
2018-05-15T23:04:58.274Z,12.30
2018-05-15T23:07:26.559Z,12.29
2018-05-15T23:09:54.887Z,12.19
2018-05-15T23:12:23.166Z,12.20
2018-05-15T23:14:52.163Z,12.40
2018-05-15T23:17:20.466Z,12.42
2018-05-15T23:19:48.898Z,12.46
2018-05-15T23:22:35.264Z,12.31
2018-05-15T23:25:03.559Z,12.29
2018-05-15T23:27:31.883Z,12.15
2018-05-15T23:30:00.176Z,12.07
2018-05-15T23:32:28.486Z,12.24
2018-05-15T23:34:56.778Z,12.38
2018-05-15T23:37:27.139Z,12.49
2018-05-15T23:39:55.590Z,12.54
2018-05-15T23:42:23.913Z,12.50
2018-05-15T23:44:52.790Z,12.43
2018-05-15T23:47:21.179Z,12.26
2018-05-15T23:49:49.568Z,12.25
2018-05-15T23:52:17.899Z,12.36
2018-05-15T23:54:46.186Z,12.43
2018-05-15T23:57:14.478Z,12.36
2018-05-15T23:59:42.923Z,12.29
